createdAt,value
2023-05-10T00:00:21.551Z,100089.00
2023-05-10T00:02:53.935Z,100088.06
2023-05-10T00:05:23.684Z,100087.50
2023-05-10T00:07:53.216Z,100084.19
2023-05-10T00:10:22.689Z,100076.38
2023-05-10T00:12:52.247Z,100081.09
2023-05-10T00:15:21.710Z,100074.22
2023-05-10T00:17:53.826Z,100073.16
2023-05-10T00:20:23.332Z,100069.59
2023-05-10T00:22:52.740Z,100068.66
2023-05-10T00:25:22.666Z,100066.72
2023-05-10T00:27:52.277Z,100064.25
2023-05-10T00:30:21.854Z,100060.69
2023-05-10T00:32:54.100Z,100059.50
2023-05-10T00:35:23.630Z,100059.81
2023-05-10T00:37:53.203Z,100058.06
2023-05-10T00:40:24.528Z,100047.59
2023-05-10T00:42:58.513Z,100057.28
2023-05-10T00:45:28.466Z,100049.84
2023-05-10T00:48:01.070Z,100055.28
2023-05-10T00:50:30.417Z,100055.88
2023-05-10T00:53:00.499Z,100049.84
2023-05-10T00:55:30.352Z,100046.97
2023-05-10T00:57:59.836Z,100045.06
2023-05-10T01:00:30.690Z,100044.47
2023-05-10T01:03:02.947Z,100046.00
2023-05-10T01:05:33.016Z,100039.50
2023-05-10T01:08:02.474Z,100041.38
2023-05-10T01:10:34.282Z,100034.75
2023-05-10T01:13:04.268Z,100038.63
2023-05-10T01:15:34.865Z,100034.22
2023-05-10T01:18:07.452Z,100039.00
2023-05-10T01:20:46.905Z,100029.03
2023-05-10T01:23:39.615Z,100032.34
2023-05-10T01:26:28.416Z,100034.94
2023-05-10T01:29:22.589Z,100044.63
2023-05-10T01:32:19.985Z,100039.50
2023-05-10T01:35:00.893Z,100037.91
2023-05-10T01:37:43.206Z,100037.69
2023-05-10T01:40:29.730Z,100038.88
2023-05-10T01:43:04.615Z,100043.16
2023-05-10T01:45:37.888Z,100036.03
2023-05-10T01:48:13.422Z,100031.88
2023-05-10T01:50:47.575Z,100025.50
2023-05-10T01:53:22.527Z,100027.41
2023-05-10T01:55:56.191Z,100031.28
2023-05-10T01:58:31.028Z,100033.09
2023-05-10T02:01:03.770Z,100026.06
2023-05-10T02:03:38.307Z,100029.69
2023-05-10T02:06:09.525Z,100032.38
2023-05-10T02:08:40.052Z,100035.22
2023-05-10T02:11:10.483Z,100030.09
2023-05-10T02:13:41.432Z,100028.69
2023-05-10T02:16:12.128Z,100028.28
2023-05-10T02:18:45.173Z,100026.53
2023-05-10T02:21:16.094Z,100026.63
2023-05-10T02:23:46.921Z,100030.56
2023-05-10T02:26:17.732Z,100026.31
2023-05-10T02:28:48.452Z,100027.84
2023-05-10T02:31:18.876Z,100031.69
2023-05-10T02:33:52.708Z,100019.13
2023-05-10T02:36:24.858Z,100031.16
2023-05-10T02:38:56.561Z,100026.09
2023-05-10T02:41:28.854Z,100033.34
2023-05-10T02:44:03.722Z,100024.34
2023-05-10T02:46:34.196Z,100031.59
2023-05-10T02:49:07.866Z,100025.31
2023-05-10T02:51:41.172Z,100022.09
2023-05-10T02:54:15.747Z,100019.81
2023-05-10T02:56:50.946Z,100021.13
2023-05-10T02:59:20.775Z,100030.25
2023-05-10T03:01:50.435Z,100018.91
2023-05-10T03:04:22.736Z,100021.25
2023-05-10T03:06:52.361Z,100020.66
2023-05-10T03:09:22.677Z,100021.31
2023-05-10T03:12:00.472Z,100020.88
2023-05-10T03:14:47.159Z,100016.84
2023-05-10T03:17:21.700Z,100015.22
2023-05-10T03:19:58.160Z,100018.41
2023-05-10T03:22:34.354Z,100014.69
2023-05-10T03:25:07.551Z,100019.50
2023-05-10T03:27:40.215Z,100015.59
2023-05-10T03:30:12.438Z,100014.91
2023-05-10T03:32:42.366Z,100008.41
2023-05-10T03:35:16.906Z,100009.84
2023-05-10T03:37:48.024Z,100012.06
2023-05-10T03:40:18.218Z,100016.84
2023-05-10T03:42:48.064Z,100008.47
2023-05-10T03:45:17.560Z,100010.19
2023-05-10T03:47:47.058Z,100005.81
2023-05-10T03:50:19.593Z,100010.72
2023-05-10T03:52:49.091Z,100019.03
2023-05-10T03:55:18.566Z,100011.19
2023-05-10T03:57:50.647Z,100016.22
2023-05-10T04:00:20.577Z,100015.78
2023-05-10T04:02:53.879Z,100017.91
2023-05-10T04:05:26.327Z,100013.19
2023-05-10T04:07:56.200Z,100014.94
2023-05-10T04:10:25.665Z,100012.53
2023-05-10T04:12:55.118Z,100012.47
2023-05-10T04:15:24.661Z,100013.00
2023-05-10T04:17:54.826Z,100014.56
2023-05-10T04:20:27.012Z,100017.22
2023-05-10T04:22:56.699Z,100012.81
2023-05-10T04:25:26.260Z,100017.91
2023-05-10T04:27:55.808Z,100018.56
2023-05-10T04:30:25.212Z,100016.59
2023-05-10T04:32:54.652Z,100024.91
2023-05-10T04:35:27.296Z,100020.06
2023-05-10T04:37:56.535Z,100023.84
2023-05-10T04:40:26.008Z,100020.16
2023-05-10T04:42:55.591Z,100028.91
2023-05-10T04:45:25.236Z,100026.63
2023-05-10T04:47:54.695Z,100027.53
2023-05-10T04:50:27.012Z,100021.72
2023-05-10T04:52:56.605Z,100021.06
2023-05-10T04:55:26.184Z,100022.69
2023-05-10T04:57:57.851Z,100026.91
2023-05-10T05:00:27.395Z,100033.88
2023-05-10T05:02:56.906Z,100036.91
2023-05-10T05:05:29.030Z,100052.00
2023-05-10T05:07:58.484Z,100043.94
2023-05-10T05:10:27.931Z,100034.00
2023-05-10T05:12:57.408Z,100043.50
2023-05-10T05:15:26.956Z,100057.88
2023-05-10T05:17:56.558Z,100076.06
2023-05-10T05:20:26.048Z,100069.69
2023-05-10T05:22:58.182Z,100074.09
2023-05-10T05:25:27.644Z,100085.22
2023-05-10T05:27:57.168Z,100092.78
2023-05-10T05:30:26.610Z,100092.09
2023-05-10T05:32:56.171Z,100093.13
2023-05-10T05:35:25.700Z,100095.91
2023-05-10T05:37:57.744Z,100094.16
2023-05-10T05:40:27.170Z,100092.03
2023-05-10T05:42:56.595Z,100099.75
2023-05-10T05:45:26.018Z,100094.66
2023-05-10T05:47:55.514Z,100099.72
2023-05-10T05:50:25.067Z,100099.50
2023-05-10T05:52:54.514Z,100102.09
2023-05-10T05:55:27.020Z,100107.53
2023-05-10T05:57:56.499Z,100107.75
2023-05-10T06:00:25.971Z,100100.25
2023-05-10T06:02:55.518Z,100113.91
2023-05-10T06:05:25.029Z,100108.47
2023-05-10T06:07:54.473Z,100108.16
2023-05-10T06:10:26.607Z,100109.34
2023-05-10T06:12:56.219Z,100115.78
2023-05-10T06:15:25.783Z,100114.63
2023-05-10T06:17:55.348Z,100119.88
2023-05-10T06:20:24.803Z,100119.03
2023-05-10T06:22:54.309Z,100116.25
2023-05-10T06:25:26.432Z,100114.88
2023-05-10T06:27:58.884Z,100120.53
2023-05-10T06:30:30.328Z,100128.84
2023-05-10T06:33:00.386Z,100133.03
2023-05-10T06:35:30.665Z,100134.06
2023-05-10T06:38:00.231Z,100135.59
2023-05-10T06:40:32.499Z,100134.56
2023-05-10T06:43:02.020Z,100139.56
2023-05-10T06:45:31.572Z,100142.22
2023-05-10T06:48:01.055Z,100142.22
2023-05-10T06:50:30.759Z,100134.22
2023-05-10T06:53:00.314Z,100145.94
2023-05-10T06:55:32.543Z,100146.97
2023-05-10T06:58:02.030Z,100150.22
2023-05-10T07:00:31.706Z,100144.09
2023-05-10T07:03:01.236Z,100154.78
2023-05-10T07:05:31.164Z,100152.63
2023-05-10T07:08:00.974Z,100158.25
2023-05-10T07:10:33.107Z,100157.06
2023-05-10T07:13:02.795Z,100168.50
2023-05-10T07:15:32.764Z,100164.69
2023-05-10T07:18:02.368Z,100165.09
2023-05-10T07:20:31.906Z,100173.53
2023-05-10T07:23:01.520Z,100170.09
2023-05-10T07:25:33.585Z,100174.09
2023-05-10T07:28:02.999Z,100174.63
2023-05-10T07:30:32.496Z,100176.41
2023-05-10T07:33:02.062Z,100186.66
2023-05-10T07:35:31.637Z,100184.97
2023-05-10T07:38:01.724Z,100188.97
2023-05-10T07:40:33.885Z,100190.19
2023-05-10T07:43:03.898Z,100192.78
2023-05-10T07:45:33.601Z,100196.34
2023-05-10T07:48:05.653Z,100194.41
2023-05-10T07:50:35.285Z,100199.00
2023-05-10T07:53:04.717Z,100209.84
2023-05-10T07:55:37.045Z,100209.28
2023-05-10T07:58:06.484Z,100206.34
2023-05-10T08:00:36.344Z,100217.44
2023-05-10T08:03:05.898Z,100214.06
2023-05-10T08:05:35.873Z,100214.50
2023-05-10T08:08:05.375Z,100219.94
2023-05-10T08:10:37.440Z,100224.03
2023-05-10T08:13:07.214Z,100227.16
2023-05-10T08:15:36.678Z,100230.47
2023-05-10T08:18:06.282Z,100238.81
2023-05-10T08:20:35.755Z,100241.75
2023-05-10T08:23:07.218Z,100254.06
2023-05-10T08:25:39.258Z,100249.41
2023-05-10T08:28:09.994Z,100255.25
2023-05-10T08:30:41.308Z,100251.50
2023-05-10T08:33:10.774Z,100262.31
2023-05-10T08:35:40.331Z,100252.47
2023-05-10T08:38:09.767Z,100256.00
2023-05-10T08:40:44.286Z,100248.56
2023-05-10T08:43:16.543Z,100258.91
2023-05-10T08:45:48.953Z,100257.81
2023-05-10T08:48:19.281Z,100261.69
2023-05-10T08:50:50.132Z,100265.84
2023-05-10T08:53:20.406Z,100275.69
2023-05-10T08:55:52.500Z,100270.84
2023-05-10T08:58:23.223Z,100272.97
2023-05-10T09:00:54.693Z,100281.91
2023-05-10T09:03:24.314Z,100287.19
2023-05-10T09:05:53.815Z,100290.97
2023-05-10T09:08:26.469Z,100292.88
2023-05-10T09:10:58.701Z,100294.31
2023-05-10T09:13:28.688Z,100303.97
2023-05-10T09:16:02.138Z,100308.31
2023-05-10T09:18:36.560Z,100305.97
2023-05-10T09:21:06.544Z,100305.53
2023-05-10T09:23:36.029Z,100310.91
2023-05-10T09:26:08.896Z,100316.81
2023-05-10T09:28:53.589Z,100320.50
2023-05-10T09:31:23.377Z,100321.47
2023-05-10T09:33:54.227Z,100331.88
2023-05-10T09:36:23.754Z,100327.84
2023-05-10T09:38:55.963Z,100329.16
2023-05-10T09:41:29.226Z,100332.84
2023-05-10T09:43:59.925Z,100336.03
2023-05-10T09:46:29.596Z,100340.78
2023-05-10T09:48:59.229Z,100342.41
2023-05-10T09:51:29.220Z,100350.59
2023-05-10T09:54:13.765Z,100348.25
2023-05-10T09:56:46.455Z,100349.69
2023-05-10T09:59:16.516Z,100344.63
2023-05-10T10:01:46.000Z,100357.41
2023-05-10T10:04:15.700Z,100360.06
2023-05-10T10:06:45.719Z,100362.03
2023-05-10T10:09:15.205Z,100362.56
2023-05-10T10:11:47.283Z,100370.53
2023-05-10T10:14:16.798Z,100372.59
2023-05-10T10:16:55.710Z,100364.22
2023-05-10T10:19:37.246Z,100371.09
2023-05-10T10:22:07.367Z,100373.59
2023-05-10T10:24:36.962Z,100374.59
2023-05-10T10:27:19.054Z,100369.13
2023-05-10T10:30:03.161Z,100373.44
2023-05-10T10:32:41.982Z,100374.53
2023-05-10T10:35:12.685Z,100374.06
2023-05-10T10:37:47.359Z,100374.66
2023-05-10T10:40:32.824Z,100372.78
2023-05-10T10:43:27.831Z,100373.75
2023-05-10T10:46:13.754Z,100372.25
2023-05-10T10:48:43.635Z,100376.63
2023-05-10T10:51:13.163Z,100375.97
2023-05-10T10:53:43.981Z,100374.66
2023-05-10T10:56:16.638Z,100378.03
2023-05-10T10:58:54.706Z,100374.84
2023-05-10T11:01:24.697Z,100377.09
2023-05-10T11:04:21.466Z,100375.81
2023-05-10T11:06:51.137Z,100377.84
2023-05-10T11:09:21.875Z,100373.81
2023-05-10T11:11:56.616Z,100372.53
2023-05-10T11:14:29.334Z,100374.44
2023-05-10T11:16:58.650Z,100375.28
2023-05-10T11:19:31.646Z,100377.16
2023-05-10T11:22:16.692Z,100382.28
2023-05-10T11:25:00.388Z,100381.38
2023-05-10T11:27:30.225Z,100388.88
2023-05-10T11:30:04.289Z,100382.97
2023-05-10T11:32:34.720Z,100378.56
2023-05-10T11:35:11.011Z,100383.69
2023-05-10T11:37:42.512Z,100386.88
2023-05-10T11:40:12.747Z,100389.16
2023-05-10T11:42:42.505Z,100386.41
2023-05-10T11:45:14.949Z,100389.31
2023-05-10T11:47:44.714Z,100387.09
2023-05-10T11:50:15.221Z,100385.59
2023-05-10T11:52:44.963Z,100385.03
2023-05-10T11:55:16.062Z,100398.53
2023-05-10T11:57:47.027Z,100401.44
2023-05-10T12:00:19.934Z,100396.66
2023-05-10T12:02:50.132Z,100389.09
2023-05-10T12:05:20.524Z,100391.50
2023-05-10T12:07:49.975Z,100388.75
2023-05-10T12:10:19.752Z,100382.16
2023-05-10T12:12:51.225Z,100382.97
2023-05-10T12:15:25.430Z,100386.78
2023-05-10T12:17:55.865Z,100389.19
2023-05-10T12:20:27.270Z,100391.78
2023-05-10T12:23:00.362Z,100391.94
2023-05-10T12:25:34.390Z,100404.13
2023-05-10T12:28:07.526Z,100401.41
2023-05-10T12:30:40.671Z,100397.97
2023-05-10T12:33:16.203Z,100403.66
2023-05-10T12:35:50.312Z,100407.22
2023-05-10T12:38:31.875Z,100410.69
2023-05-10T12:41:02.055Z,100402.25
2023-05-10T12:43:32.032Z,100405.72
2023-05-10T12:46:08.710Z,100418.06
2023-05-10T12:48:38.933Z,100408.34
2023-05-10T12:51:10.522Z,100418.91
2023-05-10T12:53:41.501Z,100417.47
2023-05-10T12:56:12.944Z,100420.22
2023-05-10T12:58:42.640Z,100428.06
2023-05-10T13:01:14.787Z,100433.19
2023-05-10T13:03:44.312Z,100428.13
2023-05-10T13:06:14.582Z,100434.16
2023-05-10T13:08:44.069Z,100429.75
2023-05-10T13:11:17.623Z,100428.59
2023-05-10T13:13:47.109Z,100434.06
2023-05-10T13:16:19.257Z,100434.63
2023-05-10T13:18:48.879Z,100433.34
2023-05-10T13:21:18.415Z,100430.94
2023-05-10T13:23:47.894Z,100429.72
2023-05-10T13:26:17.390Z,100433.19
2023-05-10T13:28:47.516Z,100429.38
2023-05-10T13:31:19.562Z,100431.53
2023-05-10T13:33:49.028Z,100426.88
2023-05-10T13:36:18.482Z,100430.59
2023-05-10T13:38:47.915Z,100432.63
2023-05-10T13:41:17.370Z,100433.69
2023-05-10T13:43:47.080Z,100431.06
2023-05-10T13:46:19.213Z,100435.69
2023-05-10T13:48:48.741Z,100435.38
2023-05-10T13:51:18.196Z,100427.16
2023-05-10T13:53:48.165Z,100435.84
2023-05-10T13:56:17.740Z,100434.63
2023-05-10T13:58:47.567Z,100433.69
2023-05-10T14:01:19.729Z,100432.03
2023-05-10T14:03:49.366Z,100425.50
2023-05-10T14:06:19.000Z,100433.44
2023-05-10T14:08:48.473Z,100429.28
2023-05-10T14:11:18.638Z,100430.13
2023-05-10T14:13:48.126Z,100430.97
2023-05-10T14:16:21.229Z,100434.53
2023-05-10T14:18:50.990Z,100438.59
2023-05-10T14:21:20.650Z,100441.06
2023-05-10T14:23:50.122Z,100436.31
2023-05-10T14:26:19.695Z,100440.56
2023-05-10T14:28:49.227Z,100445.44
2023-05-10T14:31:21.605Z,100444.25
2023-05-10T14:33:51.241Z,100447.19
2023-05-10T14:36:21.116Z,100448.75
2023-05-10T14:38:50.631Z,100443.78
2023-05-10T14:41:20.199Z,100454.94
2023-05-10T14:43:49.768Z,100445.88
2023-05-10T14:46:21.993Z,100454.94
2023-05-10T14:48:51.516Z,100458.97
2023-05-10T14:51:22.884Z,100460.88
2023-05-10T14:53:52.877Z,100460.28
2023-05-10T14:56:22.619Z,100456.59
2023-05-10T14:58:53.767Z,100457.41
2023-05-10T15:01:26.374Z,100464.19
2023-05-10T15:03:56.348Z,100465.59
2023-05-10T15:06:26.989Z,100462.53
2023-05-10T15:08:56.230Z,100461.69
2023-05-10T15:11:25.484Z,100454.31
2023-05-10T15:13:54.803Z,100465.25
2023-05-10T15:16:26.821Z,100455.75
2023-05-10T15:18:56.303Z,100468.47
2023-05-10T15:21:25.616Z,100465.72
2023-05-10T15:23:55.202Z,100473.69
2023-05-10T15:26:25.155Z,100480.81
2023-05-10T15:28:54.482Z,100476.41
2023-05-10T15:31:26.582Z,100479.41
2023-05-10T15:34:00.537Z,100495.56
2023-05-10T15:36:29.911Z,100494.72
2023-05-10T15:38:59.198Z,100496.59
2023-05-10T15:41:31.274Z,100496.38
2023-05-10T15:44:01.091Z,100502.31
2023-05-10T15:46:33.411Z,100501.75
2023-05-10T15:49:02.798Z,100498.75
2023-05-10T15:51:35.364Z,100500.06
2023-05-10T15:54:08.334Z,100508.47
2023-05-10T15:56:38.278Z,100508.72
2023-05-10T15:59:08.798Z,100509.78
2023-05-10T16:01:40.694Z,100517.84
2023-05-10T16:04:10.054Z,100519.38
2023-05-10T16:06:39.759Z,100524.38
2023-05-10T16:09:09.045Z,100522.09
2023-05-10T16:11:38.316Z,100527.00
2023-05-10T16:14:07.626Z,100523.50
2023-05-10T16:16:37.057Z,100533.00
2023-05-10T16:19:09.123Z,100530.81
2023-05-10T16:21:38.650Z,100529.97
2023-05-10T16:24:08.332Z,100532.31
2023-05-10T16:26:41.176Z,100535.75
2023-05-10T16:29:10.693Z,100540.25
2023-05-10T16:31:40.038Z,100548.44
2023-05-10T16:34:11.898Z,100553.59
2023-05-10T16:36:41.237Z,100554.44
2023-05-10T16:39:11.367Z,100547.69
2023-05-10T16:41:40.746Z,100548.56
2023-05-10T16:44:10.014Z,100557.19
2023-05-10T16:46:39.384Z,100549.44
2023-05-10T16:49:12.481Z,100560.78
2023-05-10T16:51:41.850Z,100556.00
2023-05-10T16:54:11.093Z,100557.44
2023-05-10T16:56:40.439Z,100565.88
2023-05-10T16:59:09.774Z,100568.66
2023-05-10T17:01:39.074Z,100563.72
2023-05-10T17:04:08.464Z,100564.25
2023-05-10T17:06:40.915Z,100569.13
2023-05-10T17:09:10.206Z,100564.88
2023-05-10T17:11:39.508Z,100574.66
2023-05-10T17:14:08.867Z,100571.53
2023-05-10T17:16:38.312Z,100562.94
2023-05-10T17:19:07.849Z,100581.91
2023-05-10T17:21:37.197Z,100582.75
2023-05-10T17:24:09.408Z,100585.31
2023-05-10T17:26:38.742Z,100582.75
2023-05-10T17:29:08.051Z,100592.16
2023-05-10T17:31:37.324Z,100584.78
2023-05-10T17:34:06.703Z,100585.94
2023-05-10T17:36:36.137Z,100591.78
2023-05-10T17:39:05.463Z,100588.72
2023-05-10T17:41:37.358Z,100593.13
2023-05-10T17:44:06.717Z,100597.28
2023-05-10T17:46:35.995Z,100590.69
2023-05-10T17:49:05.325Z,100597.69
2023-05-10T17:51:34.867Z,100590.53
2023-05-10T17:54:04.229Z,100605.44
2023-05-10T17:56:33.541Z,100601.41
2023-05-10T17:59:05.489Z,100603.97
2023-05-10T18:01:34.933Z,100605.88
2023-05-10T18:04:06.208Z,100604.50
2023-05-10T18:06:38.365Z,100609.94
2023-05-10T18:09:07.844Z,100606.81
2023-05-10T18:11:38.729Z,100610.22
2023-05-10T18:14:10.766Z,100612.94
2023-05-10T18:16:40.250Z,100623.97
2023-05-10T18:19:09.648Z,100625.53
2023-05-10T18:21:39.188Z,100627.31
2023-05-10T18:24:08.923Z,100623.09
2023-05-10T18:26:38.319Z,100631.94
2023-05-10T18:29:10.147Z,100623.00
2023-05-10T18:31:39.467Z,100629.94
2023-05-10T18:34:08.830Z,100634.66
2023-05-10T18:36:38.162Z,100627.06
2023-05-10T18:39:08.512Z,100628.75
2023-05-10T18:41:37.843Z,100639.50
2023-05-10T18:44:09.737Z,100632.31
2023-05-10T18:46:39.156Z,100639.66
2023-05-10T18:49:08.640Z,100638.78
2023-05-10T18:51:37.942Z,100639.91
2023-05-10T18:54:07.446Z,100645.81
2023-05-10T18:56:36.751Z,100649.56
2023-05-10T18:59:06.079Z,100658.16
2023-05-10T19:01:37.994Z,100665.50
2023-05-10T19:04:08.106Z,100659.69
2023-05-10T19:06:37.424Z,100660.53
2023-05-10T19:09:07.032Z,100663.53
2023-05-10T19:11:36.396Z,100671.66
2023-05-10T19:14:05.889Z,100665.59
2023-05-10T19:16:37.884Z,100667.94
2023-05-10T19:19:08.702Z,100672.75
2023-05-10T19:21:38.125Z,100668.16
2023-05-10T19:24:07.614Z,100671.13
2023-05-10T19:26:36.891Z,100677.63
2023-05-10T19:29:06.200Z,100679.75
2023-05-10T19:31:38.116Z,100684.16
2023-05-10T19:34:07.388Z,100684.59
2023-05-10T19:36:36.780Z,100687.09
2023-05-10T19:39:06.047Z,100685.88
2023-05-10T19:41:35.325Z,100684.00
2023-05-10T19:44:04.762Z,100683.38
2023-05-10T19:46:34.328Z,100686.50
2023-05-10T19:49:06.237Z,100690.66
2023-05-10T19:51:35.571Z,100692.38
2023-05-10T19:54:05.458Z,100688.19
2023-05-10T19:56:34.755Z,100688.63
2023-05-10T19:59:04.382Z,100687.78
2023-05-10T20:01:33.741Z,100691.56
2023-05-10T20:04:06.117Z,100688.66
2023-05-10T20:06:35.464Z,100691.16
2023-05-10T20:09:05.060Z,100692.06
2023-05-10T20:11:34.323Z,100695.13
2023-05-10T20:14:03.907Z,100685.50
2023-05-10T20:16:33.391Z,100689.91
2023-05-10T20:19:02.866Z,100698.03
2023-05-10T20:21:35.612Z,100690.91
2023-05-10T20:24:04.946Z,100691.75
2023-05-10T20:26:34.245Z,100694.34
2023-05-10T20:29:03.854Z,100696.59
2023-05-10T20:31:33.327Z,100690.94
2023-05-10T20:34:02.689Z,100703.53
2023-05-10T20:36:31.990Z,100700.56
2023-05-10T20:39:03.894Z,100702.25
2023-05-10T20:41:33.174Z,100705.22
2023-05-10T20:44:02.442Z,100707.09
2023-05-10T20:46:31.825Z,100698.47
2023-05-10T20:49:01.157Z,100706.84
2023-05-10T20:51:33.119Z,100701.63
2023-05-10T20:54:04.976Z,100700.38
2023-05-10T20:56:35.148Z,100701.22
2023-05-10T20:59:04.429Z,100696.63
2023-05-10T21:01:33.885Z,100699.53
2023-05-10T21:04:03.211Z,100695.94
2023-05-10T21:06:32.592Z,100687.44
2023-05-10T21:09:02.045Z,100695.16
2023-05-10T21:11:36.210Z,100700.19
2023-05-10T21:14:05.700Z,100702.53
2023-05-10T21:16:35.074Z,100697.09
2023-05-10T21:19:04.634Z,100691.88
2023-05-10T21:21:34.070Z,100696.06
2023-05-10T21:24:03.369Z,100699.00
2023-05-10T21:26:35.334Z,100692.28
2023-05-10T21:29:05.264Z,100696.91
2023-05-10T21:31:34.676Z,100695.19
2023-05-10T21:34:03.992Z,100691.41
2023-05-10T21:36:33.626Z,100697.28
2023-05-10T21:39:03.363Z,100696.47
2023-05-10T21:41:35.280Z,100696.66
2023-05-10T21:44:04.665Z,100695.81
2023-05-10T21:46:34.185Z,100691.63
2023-05-10T21:49:03.452Z,100694.97
2023-05-10T21:51:33.186Z,100697.50
2023-05-10T21:54:02.806Z,100699.41
2023-05-10T21:56:32.066Z,100695.41
2023-05-10T21:59:04.495Z,100700.72
2023-05-10T22:01:33.864Z,100701.72
2023-05-10T22:04:03.171Z,100702.16
2023-05-10T22:06:32.440Z,100702.34
2023-05-10T22:09:02.375Z,100701.53
2023-05-10T22:11:31.668Z,100709.03
2023-05-10T22:14:01.000Z,100707.56
2023-05-10T22:16:32.875Z,100711.34
2023-05-10T22:19:02.334Z,100702.56
2023-05-10T22:21:32.038Z,100700.66
2023-05-10T22:24:01.339Z,100699.41
2023-05-10T22:26:30.683Z,100697.34
2023-05-10T22:28:59.985Z,100704.44
2023-05-10T22:31:29.689Z,100701.09
2023-05-10T22:34:01.600Z,100704.88
2023-05-10T22:36:31.723Z,100709.03
2023-05-10T22:39:01.132Z,100709.44
2023-05-10T22:41:30.419Z,100709.13
2023-05-10T22:43:59.758Z,100707.63
2023-05-10T22:46:29.394Z,100710.97
2023-05-10T22:49:01.443Z,100708.69
2023-05-10T22:51:31.117Z,100709.97
2023-05-10T22:54:00.409Z,100713.13
2023-05-10T22:56:29.882Z,100706.84
2023-05-10T22:58:59.492Z,100719.59
2023-05-10T23:01:28.974Z,100720.88
2023-05-10T23:04:01.256Z,100723.75
2023-05-10T23:06:30.670Z,100726.50
2023-05-10T23:09:00.061Z,100725.03
2023-05-10T23:11:29.355Z,100723.38
2023-05-10T23:13:58.875Z,100727.53
2023-05-10T23:16:28.180Z,100740.13
2023-05-10T23:18:57.532Z,100732.16
2023-05-10T23:21:31.852Z,100734.88
2023-05-10T23:24:01.495Z,100730.06
2023-05-10T23:26:30.892Z,100728.97
2023-05-10T23:29:00.174Z,100731.94
2023-05-10T23:31:29.746Z,100745.75
2023-05-10T23:33:59.040Z,100735.69
2023-05-10T23:36:31.916Z,100744.50
2023-05-10T23:39:01.478Z,100741.56
2023-05-10T23:41:30.809Z,100733.00
2023-05-10T23:44:00.074Z,100740.13
2023-05-10T23:46:33.605Z,100736.16
2023-05-10T23:49:03.062Z,100736.78
2023-05-10T23:51:34.936Z,100742.66
2023-05-10T23:54:04.225Z,100743.28
2023-05-10T23:56:33.649Z,100738.03
2023-05-10T23:59:03.018Z,100747.03
